createdAt,value
2018-07-12T00:01:46.243Z,0.00
2018-07-12T00:02:46.171Z,0.00
2018-07-12T00:04:38.978Z,0.00
2018-07-12T00:05:38.885Z,0.00
2018-07-12T00:07:31.718Z,0.00
2018-07-12T00:08:31.643Z,0.00
2018-07-12T00:10:24.397Z,0.00
2018-07-12T00:11:24.331Z,0.00
2018-07-12T00:13:17.126Z,0.00
2018-07-12T00:14:17.038Z,0.00
2018-07-12T00:16:09.819Z,0.00
2018-07-12T00:17:09.752Z,0.00
2018-07-12T00:19:02.547Z,0.00
2018-07-12T00:20:02.457Z,0.00
2018-07-12T00:21:55.229Z,0.00
2018-07-12T00:22:55.164Z,0.00
2018-07-12T00:24:47.954Z,0.00
2018-07-12T00:25:47.879Z,0.00
2018-07-12T00:27:40.652Z,0.00
2018-07-12T00:28:40.581Z,0.00
2018-07-12T00:30:33.371Z,0.00
2018-07-12T00:31:33.301Z,0.00
2018-07-12T00:33:26.067Z,0.00
2018-07-12T00:34:26.011Z,0.00
2018-07-12T00:36:18.792Z,0.00
2018-07-12T00:37:18.718Z,0.00
2018-07-12T00:39:11.498Z,0.00
2018-07-12T00:40:11.419Z,0.00
2018-07-12T00:42:04.199Z,0.00
2018-07-12T00:43:04.131Z,0.00
2018-07-12T00:44:56.918Z,0.00
2018-07-12T00:45:56.852Z,0.00
2018-07-12T00:47:49.755Z,0.00
2018-07-12T00:48:49.593Z,0.00
2018-07-12T00:50:42.353Z,0.00
2018-07-12T00:51:42.268Z,0.00
2018-07-12T00:53:35.073Z,0.00
2018-07-12T00:54:35.014Z,0.00
2018-07-12T00:56:27.791Z,0.00
2018-07-12T00:57:27.718Z,0.00
2018-07-12T00:59:20.519Z,0.00
2018-07-12T01:00:20.441Z,0.00
2018-07-12T01:02:13.206Z,0.00
2018-07-12T01:03:13.141Z,0.00
2018-07-12T01:05:05.931Z,0.00
2018-07-12T01:06:05.854Z,0.00
2018-07-12T01:07:58.627Z,0.00
2018-07-12T01:08:58.567Z,0.00
2018-07-12T01:10:51.344Z,0.00
2018-07-12T01:11:51.273Z,0.00
2018-07-12T01:13:44.040Z,0.00
2018-07-12T01:14:43.984Z,0.00
2018-07-12T01:16:36.791Z,0.00
2018-07-12T01:17:36.705Z,0.00
2018-07-12T01:19:29.491Z,0.00
2018-07-12T01:20:29.420Z,0.00
2018-07-12T01:22:22.203Z,0.00
2018-07-12T01:23:22.141Z,0.00
2018-07-12T01:25:14.935Z,0.00
2018-07-12T01:26:14.855Z,0.00
2018-07-12T01:28:07.617Z,0.00
2018-07-12T01:29:07.554Z,0.00
2018-07-12T01:31:00.342Z,0.00
2018-07-12T01:32:00.278Z,0.00
2018-07-12T01:33:53.037Z,0.00
2018-07-12T01:34:52.972Z,0.00
2018-07-12T01:36:45.782Z,0.00
2018-07-12T01:37:45.707Z,0.00
2018-07-12T01:39:38.485Z,0.00
2018-07-12T01:40:38.412Z,0.00
2018-07-12T01:42:31.212Z,0.00
2018-07-12T01:43:31.137Z,0.00
2018-07-12T01:45:23.930Z,0.00
2018-07-12T01:46:23.852Z,0.00
2018-07-12T01:48:16.626Z,0.00
2018-07-12T01:49:16.568Z,0.00
2018-07-12T01:51:09.367Z,0.00
2018-07-12T01:52:09.284Z,0.00
2018-07-12T01:54:02.165Z,0.00
2018-07-12T01:55:02.048Z,0.00
2018-07-12T01:56:54.857Z,0.00
2018-07-12T01:57:54.775Z,0.00
2018-07-12T01:59:47.627Z,0.00
2018-07-12T02:00:47.549Z,0.00
2018-07-12T02:02:40.318Z,0.00
2018-07-12T02:03:40.241Z,0.00
2018-07-12T02:05:33.070Z,0.00
2018-07-12T02:06:32.983Z,0.00
2018-07-12T02:08:25.794Z,0.00
2018-07-12T02:09:25.760Z,0.00
2018-07-12T02:11:18.629Z,0.00
2018-07-12T02:12:18.528Z,0.00
2018-07-12T02:14:11.363Z,0.00
2018-07-12T02:15:11.286Z,0.00
2018-07-12T02:17:04.188Z,0.00
2018-07-12T02:18:04.041Z,0.00
2018-07-12T02:19:56.864Z,0.00
2018-07-12T02:20:56.783Z,0.00
2018-07-12T02:22:49.619Z,0.00
2018-07-12T02:23:49.533Z,0.00
2018-07-12T02:25:42.418Z,0.00
2018-07-12T02:26:42.333Z,0.00
2018-07-12T02:28:35.160Z,0.00
2018-07-12T02:29:35.089Z,0.00
2018-07-12T02:31:27.932Z,0.00
2018-07-12T02:32:27.847Z,0.00
2018-07-12T02:34:20.631Z,0.00
2018-07-12T02:35:20.557Z,0.00
2018-07-12T02:37:13.376Z,0.00
2018-07-12T02:38:13.298Z,0.00
2018-07-12T02:40:06.106Z,0.00
2018-07-12T02:41:06.065Z,0.00
2018-07-12T02:42:58.811Z,0.00
2018-07-12T02:43:58.768Z,0.00
2018-07-12T02:45:51.555Z,0.00
2018-07-12T02:46:51.480Z,0.00
2018-07-12T02:48:44.305Z,0.00
2018-07-12T02:49:44.232Z,0.00
2018-07-12T02:51:37.037Z,0.00
2018-07-12T02:52:36.964Z,0.00
2018-07-12T02:54:29.759Z,0.00
2018-07-12T02:55:29.691Z,0.00
2018-07-12T02:57:22.511Z,0.00
2018-07-12T02:58:22.473Z,0.00
2018-07-12T03:00:15.204Z,0.00
2018-07-12T03:01:15.131Z,0.00
2018-07-12T03:03:07.922Z,0.00
2018-07-12T03:04:07.852Z,0.00
2018-07-12T03:06:00.643Z,4.00
2018-07-12T03:07:00.574Z,4.00
2018-07-12T03:08:53.403Z,0.00
2018-07-12T03:09:53.320Z,0.00
2018-07-12T03:11:46.134Z,0.00
2018-07-12T03:12:46.104Z,4.00
2018-07-12T03:14:38.875Z,0.00
2018-07-12T03:15:38.789Z,0.00
2018-07-12T03:17:31.571Z,0.00
2018-07-12T03:18:31.482Z,0.00
2018-07-12T03:20:24.276Z,0.00
2018-07-12T03:21:24.196Z,0.00
2018-07-12T03:23:16.981Z,0.00
2018-07-12T03:24:16.914Z,0.00
2018-07-12T03:26:09.704Z,4.00
2018-07-12T03:27:09.621Z,4.00
2018-07-12T03:29:02.378Z,4.00
2018-07-12T03:30:02.332Z,4.00
2018-07-12T03:31:55.168Z,4.00
2018-07-12T03:32:55.055Z,4.00
2018-07-12T03:34:47.848Z,4.00
2018-07-12T03:35:47.792Z,4.00
2018-07-12T03:37:40.631Z,4.00
2018-07-12T03:38:40.563Z,4.00
2018-07-12T03:40:33.349Z,4.00
2018-07-12T03:41:33.277Z,4.00
2018-07-12T03:43:26.082Z,4.00
2018-07-12T03:44:26.025Z,4.00
2018-07-12T03:46:18.827Z,4.00
2018-07-12T03:47:18.723Z,0.00
2018-07-12T03:49:11.510Z,4.00
2018-07-12T03:50:11.429Z,8.00
2018-07-12T03:52:04.214Z,8.00
2018-07-12T03:53:04.146Z,4.00
2018-07-12T03:54:57.435Z,0.00
2018-07-12T03:55:57.376Z,8.00
2018-07-12T03:57:50.195Z,4.00
2018-07-12T03:58:50.104Z,4.00
2018-07-12T04:00:42.887Z,4.00
2018-07-12T04:01:42.824Z,4.00
2018-07-12T04:03:35.667Z,4.00
2018-07-12T04:04:35.544Z,4.00
2018-07-12T04:06:28.471Z,8.00
2018-07-12T04:07:28.393Z,8.00
2018-07-12T04:09:21.155Z,8.00
2018-07-12T04:10:21.109Z,12.00
2018-07-12T04:12:13.887Z,12.00
2018-07-12T04:13:13.809Z,8.00
2018-07-12T04:15:06.667Z,8.00
2018-07-12T04:16:06.608Z,8.00
2018-07-12T04:17:59.489Z,12.00
2018-07-12T04:18:59.337Z,16.00
2018-07-12T04:20:52.232Z,16.00
2018-07-12T04:21:52.076Z,12.00
2018-07-12T04:23:44.863Z,8.00
2018-07-12T04:24:44.799Z,12.00
2018-07-12T04:26:37.696Z,16.00
2018-07-12T04:27:37.539Z,16.00
2018-07-12T04:29:30.408Z,12.00
2018-07-12T04:30:30.318Z,16.00
2018-07-12T04:32:23.128Z,20.00
2018-07-12T04:33:23.043Z,20.00
2018-07-12T04:35:15.852Z,20.00
2018-07-12T04:36:15.792Z,20.00
2018-07-12T04:38:08.571Z,16.00
2018-07-12T04:39:08.500Z,20.00
2018-07-12T04:41:01.324Z,24.00
2018-07-12T04:42:01.234Z,24.00
2018-07-12T04:43:53.994Z,28.00
2018-07-12T04:44:53.954Z,28.00
2018-07-12T04:46:46.764Z,16.00
2018-07-12T04:47:46.666Z,16.00
2018-07-12T04:49:39.479Z,20.00
2018-07-12T04:50:39.411Z,24.00
2018-07-12T04:52:32.227Z,36.00
2018-07-12T04:53:32.113Z,40.00
2018-07-12T04:55:24.936Z,24.00
2018-07-12T04:56:24.854Z,20.00
2018-07-12T04:58:17.790Z,24.00
2018-07-12T04:59:17.630Z,24.00
2018-07-12T05:01:10.415Z,32.00
2018-07-12T05:02:10.334Z,28.00
2018-07-12T05:04:03.125Z,20.00
2018-07-12T05:05:03.101Z,24.00
2018-07-12T05:06:55.842Z,24.00
2018-07-12T05:07:55.768Z,32.00
2018-07-12T05:09:48.596Z,32.00
2018-07-12T05:10:48.529Z,28.00
2018-07-12T05:12:41.331Z,32.00
2018-07-12T05:13:41.242Z,48.00
2018-07-12T05:15:34.100Z,52.00
2018-07-12T05:16:34.003Z,44.00
2018-07-12T05:18:26.871Z,28.00
2018-07-12T05:19:26.795Z,28.00
2018-07-12T05:21:19.622Z,28.00
2018-07-12T05:22:19.547Z,44.00
2018-07-12T05:24:12.316Z,72.00
2018-07-12T05:25:12.251Z,56.00
2018-07-12T05:27:05.106Z,56.00
2018-07-12T05:28:05.023Z,48.00
2018-07-12T05:29:57.852Z,24.00
2018-07-12T05:30:57.773Z,24.00
2018-07-12T05:32:50.619Z,20.00
2018-07-12T05:33:50.538Z,16.00
2018-07-12T05:35:43.335Z,88.00
2018-07-12T05:36:43.270Z,160.00
2018-07-12T05:38:36.120Z,120.00
2018-07-12T05:39:36.023Z,104.00
2018-07-12T05:41:30.325Z,64.00
2018-07-12T05:42:30.333Z,36.00
2018-07-12T05:44:23.204Z,52.00
2018-07-12T05:45:23.099Z,92.00
2018-07-12T05:47:15.946Z,72.00
2018-07-12T05:48:15.859Z,76.00
2018-07-12T05:50:08.891Z,112.00
2018-07-12T05:51:08.590Z,104.00
2018-07-12T05:53:01.442Z,92.00
2018-07-12T05:54:01.377Z,96.00
2018-07-12T05:55:55.652Z,88.00
2018-07-12T05:56:55.585Z,100.00
2018-07-12T05:58:48.443Z,112.00
2018-07-12T05:59:48.346Z,116.00
2018-07-12T06:01:41.152Z,164.00
2018-07-12T06:02:41.085Z,192.00
2018-07-12T06:04:34.328Z,212.00
2018-07-12T06:05:34.245Z,208.00
2018-07-12T06:07:27.061Z,184.00
2018-07-12T06:08:26.949Z,176.00
2018-07-12T06:10:19.764Z,268.00
2018-07-12T06:11:19.736Z,324.00
2018-07-12T06:13:12.512Z,296.00
2018-07-12T06:14:12.512Z,212.00
2018-07-12T06:16:05.272Z,276.00
2018-07-12T06:17:05.229Z,280.00
2018-07-12T06:18:57.966Z,252.00
2018-07-12T06:19:58.521Z,260.00
2018-07-12T06:21:50.826Z,248.00
2018-07-12T06:22:50.658Z,244.00
2018-07-12T06:24:43.538Z,232.00
2018-07-12T06:25:43.402Z,252.00
2018-07-12T06:27:52.787Z,200.00
2018-07-12T06:28:52.219Z,168.00
2018-07-12T06:30:49.013Z,140.00
2018-07-12T06:31:48.926Z,128.00
2018-07-12T06:33:42.327Z,104.00
2018-07-12T06:34:41.673Z,108.00
2018-07-12T06:36:34.494Z,128.00
2018-07-12T06:37:34.400Z,88.00
2018-07-12T06:39:27.173Z,76.00
2018-07-12T06:40:27.110Z,76.00
2018-07-12T06:42:20.397Z,156.00
2018-07-12T06:43:20.351Z,268.00
2018-07-12T06:45:13.214Z,252.00
2018-07-12T06:46:13.145Z,320.00
2018-07-12T06:48:05.949Z,296.00
2018-07-12T06:49:05.863Z,236.00
2018-07-12T06:50:58.755Z,188.00
2018-07-12T06:51:58.682Z,244.00
2018-07-12T06:53:51.525Z,260.00
2018-07-12T06:54:51.430Z,184.00
2018-07-12T06:56:44.266Z,48.00
2018-07-12T06:57:44.260Z,44.00
2018-07-12T06:59:37.025Z,32.00
2018-07-12T07:00:36.980Z,48.00
2018-07-12T07:02:29.818Z,36.00
2018-07-12T07:03:29.738Z,52.00
2018-07-12T07:05:22.607Z,52.00
2018-07-12T07:06:22.476Z,72.00
2018-07-12T07:08:15.355Z,128.00
2018-07-12T07:09:15.288Z,148.00
2018-07-12T07:11:08.101Z,208.00
2018-07-12T07:12:08.026Z,228.00
2018-07-12T07:14:00.832Z,220.00
2018-07-12T07:15:00.735Z,216.00
2018-07-12T07:16:53.609Z,240.00
2018-07-12T07:17:53.479Z,240.00
2018-07-12T07:19:46.250Z,236.00
2018-07-12T07:20:46.189Z,216.00
2018-07-12T07:22:39.503Z,244.00
2018-07-12T07:23:39.447Z,248.00
2018-07-12T07:25:32.283Z,264.00
2018-07-12T07:26:32.167Z,236.00
2018-07-12T07:28:24.946Z,228.00
2018-07-12T07:29:24.874Z,220.00
2018-07-12T07:31:17.712Z,208.00
2018-07-12T07:32:17.677Z,296.00
2018-07-12T07:34:10.444Z,264.00
2018-07-12T07:35:10.417Z,264.00
2018-07-12T07:37:03.339Z,236.00
2018-07-12T07:38:03.239Z,200.00
2018-07-12T07:39:56.047Z,176.00
2018-07-12T07:40:55.956Z,212.00
2018-07-12T07:42:48.748Z,172.00
2018-07-12T07:43:48.667Z,176.00
2018-07-12T07:45:41.830Z,140.00
2018-07-12T07:46:41.664Z,156.00
2018-07-12T07:48:34.630Z,156.00
2018-07-12T07:49:34.490Z,128.00
2018-07-12T07:51:27.288Z,148.00
2018-07-12T07:52:27.186Z,136.00
2018-07-12T07:54:20.090Z,120.00
2018-07-12T07:55:19.915Z,76.00
2018-07-12T07:57:12.754Z,92.00
2018-07-12T07:58:12.658Z,108.00
2018-07-12T08:00:05.509Z,140.00
2018-07-12T08:01:05.358Z,116.00
2018-07-12T08:02:58.760Z,136.00
2018-07-12T08:03:58.258Z,116.00
2018-07-12T08:05:51.058Z,136.00
2018-07-12T08:06:50.984Z,152.00
2018-07-12T08:08:43.782Z,132.00
2018-07-12T08:09:43.698Z,104.00
2018-07-12T08:11:36.717Z,76.00
2018-07-12T08:12:37.079Z,64.00
2018-07-12T08:14:29.428Z,124.00
2018-07-12T08:15:29.355Z,120.00
2018-07-12T08:17:22.704Z,132.00
2018-07-12T08:18:22.560Z,108.00
2018-07-12T08:20:15.383Z,92.00
2018-07-12T08:21:15.309Z,88.00
2018-07-12T08:23:08.193Z,76.00
2018-07-12T08:24:07.986Z,80.00
2018-07-12T08:26:00.895Z,60.00
2018-07-12T08:27:00.833Z,56.00
2018-07-12T08:28:53.605Z,60.00
2018-07-12T08:29:53.536Z,72.00
2018-07-12T08:31:46.482Z,100.00
2018-07-12T08:32:46.413Z,100.00
2018-07-12T08:34:39.738Z,136.00
2018-07-12T08:35:39.656Z,156.00
2018-07-12T08:37:32.458Z,184.00
2018-07-12T08:38:32.404Z,180.00
2018-07-12T08:40:25.650Z,168.00
2018-07-12T08:41:25.515Z,176.00
2018-07-12T08:43:18.308Z,216.00
2018-07-12T08:44:18.234Z,252.00
2018-07-12T08:46:11.166Z,240.00
2018-07-12T08:47:10.969Z,216.00
2018-07-12T08:49:03.844Z,176.00
2018-07-12T08:50:03.712Z,204.00
2018-07-12T08:51:56.584Z,228.00
2018-07-12T08:52:56.514Z,244.00
2018-07-12T08:54:49.388Z,292.00
2018-07-12T08:55:49.309Z,324.00
2018-07-12T08:57:42.219Z,388.00
2018-07-12T08:58:42.159Z,344.00
2018-07-12T09:00:34.944Z,308.00
2018-07-12T09:01:34.908Z,268.00
2018-07-12T09:03:27.770Z,220.00
2018-07-12T09:04:27.677Z,212.00
2018-07-12T09:06:20.504Z,216.00
2018-07-12T09:07:20.438Z,272.00
2018-07-12T09:09:13.279Z,396.00
2018-07-12T09:10:13.191Z,428.00
2018-07-12T09:12:06.074Z,520.00
2018-07-12T09:13:05.961Z,576.00
2018-07-12T09:14:58.750Z,652.00
2018-07-12T09:15:58.693Z,632.00
2018-07-12T09:17:51.601Z,596.00
2018-07-12T09:18:51.511Z,644.00
2018-07-12T09:20:44.361Z,692.00
2018-07-12T09:21:44.391Z,680.00
2018-07-12T09:23:37.178Z,672.00
2018-07-12T09:24:37.085Z,680.00
2018-07-12T09:26:29.928Z,692.00
2018-07-12T09:27:29.846Z,692.00
2018-07-12T09:29:22.669Z,604.00
2018-07-12T09:30:22.592Z,572.00
2018-07-12T09:32:15.477Z,504.00
2018-07-12T09:33:15.388Z,468.00
2018-07-12T09:35:08.229Z,444.00
2018-07-12T09:36:08.147Z,444.00
2018-07-12T09:38:00.965Z,420.00
2018-07-12T09:39:00.882Z,428.00
2018-07-12T09:40:53.737Z,424.00
2018-07-12T09:41:53.622Z,424.00
2018-07-12T09:43:46.513Z,420.00
2018-07-12T09:44:46.467Z,404.00
2018-07-12T09:46:39.302Z,412.00
2018-07-12T09:47:39.204Z,404.00
2018-07-12T09:49:33.167Z,432.00
2018-07-12T09:50:32.019Z,436.00
2018-07-12T09:52:24.941Z,460.00
2018-07-12T09:53:24.732Z,468.00
2018-07-12T09:55:17.699Z,504.00
2018-07-12T09:56:17.660Z,524.00
2018-07-12T09:58:11.428Z,548.00
2018-07-12T09:59:10.535Z,580.00
2018-07-12T10:01:03.370Z,612.00
2018-07-12T10:02:03.245Z,580.00
2018-07-12T10:03:57.081Z,556.00
2018-07-12T10:04:56.992Z,560.00
2018-07-12T10:06:49.823Z,560.00
2018-07-12T10:07:49.740Z,524.00
2018-07-12T10:09:42.662Z,452.00
2018-07-12T10:10:42.520Z,484.00
2018-07-12T10:12:35.373Z,572.00
2018-07-12T10:13:35.268Z,584.00
2018-07-12T10:15:28.144Z,596.00
2018-07-12T10:16:28.021Z,592.00
2018-07-12T10:18:20.915Z,584.00
2018-07-12T10:19:20.806Z,596.00
2018-07-12T10:21:13.658Z,620.00
2018-07-12T10:22:13.532Z,632.00
2018-07-12T10:24:07.402Z,628.00
2018-07-12T10:25:06.322Z,624.00
2018-07-12T10:26:59.125Z,628.00
2018-07-12T10:27:59.150Z,636.00
2018-07-12T10:29:51.985Z,612.00
2018-07-12T10:30:51.821Z,620.00
2018-07-12T10:32:44.633Z,636.00
2018-07-12T10:33:44.538Z,648.00
2018-07-12T10:35:37.389Z,720.00
2018-07-12T10:36:37.906Z,788.00
2018-07-12T10:38:30.251Z,920.00
2018-07-12T10:39:30.055Z,1020.00
2018-07-12T10:41:23.006Z,1128.00
2018-07-12T10:42:22.835Z,1164.00
2018-07-12T10:44:15.672Z,1060.00
2018-07-12T10:45:15.595Z,1044.00
2018-07-12T10:47:08.465Z,928.00
2018-07-12T10:48:08.418Z,868.00
2018-07-12T10:50:01.458Z,768.00
2018-07-12T10:51:01.115Z,728.00
2018-07-12T10:52:54.011Z,708.00
2018-07-12T10:53:53.869Z,708.00
2018-07-12T10:56:46.773Z,804.00
2018-07-12T10:58:39.505Z,812.00
2018-07-12T10:59:39.502Z,832.00
2018-07-12T11:01:32.473Z,852.00
2018-07-12T11:02:32.405Z,872.00
2018-07-12T11:04:25.344Z,912.00
2018-07-12T11:05:25.170Z,916.00
2018-07-12T11:07:17.971Z,904.00
2018-07-12T11:08:17.858Z,884.00
2018-07-12T11:10:10.705Z,864.00
2018-07-12T11:11:10.611Z,884.00
2018-07-12T11:13:03.633Z,904.00
2018-07-12T11:14:03.482Z,924.00
2018-07-12T11:15:56.305Z,892.00
2018-07-12T11:16:56.251Z,928.00
2018-07-12T11:18:49.022Z,1028.00
2018-07-12T11:19:48.963Z,1184.00
2018-07-12T11:21:41.867Z,1296.00
2018-07-12T11:22:41.794Z,1320.00
2018-07-12T11:24:34.696Z,1948.00
2018-07-12T11:25:34.593Z,3348.00
2018-07-12T11:27:27.432Z,1420.00
2018-07-12T11:28:27.349Z,1116.00
2018-07-12T11:30:20.315Z,816.00
2018-07-12T11:31:20.195Z,748.00
2018-07-12T11:33:13.070Z,808.00
2018-07-12T11:34:12.965Z,552.00
2018-07-12T11:36:05.979Z,384.00
2018-07-12T11:37:06.009Z,404.00
2018-07-12T11:38:58.618Z,736.00
2018-07-12T11:39:58.534Z,776.00
2018-07-12T11:41:51.439Z,668.00
2018-07-12T11:42:51.409Z,756.00
2018-07-12T11:44:44.567Z,848.00
2018-07-12T11:45:44.172Z,848.00
2018-07-12T11:47:37.078Z,900.00
2018-07-12T11:48:36.981Z,876.00
2018-07-12T11:50:30.013Z,708.00
2018-07-12T11:51:29.835Z,644.00
2018-07-12T11:53:22.670Z,736.00
2018-07-12T11:54:22.834Z,688.00
2018-07-12T11:56:15.808Z,620.00
2018-07-12T11:59:08.437Z,520.00
2018-07-12T12:00:08.245Z,524.00
2018-07-12T12:02:01.141Z,484.00
2018-07-12T12:03:01.659Z,384.00
2018-07-12T12:04:54.545Z,376.00
2018-07-12T12:05:55.405Z,348.00
2018-07-12T12:07:47.797Z,364.00
2018-07-12T12:08:46.642Z,324.00
2018-07-12T12:10:39.944Z,220.00
2018-07-12T12:11:39.315Z,248.00
2018-07-12T12:14:33.218Z,328.00
2018-07-12T12:16:25.149Z,492.00
2018-07-12T12:17:25.007Z,472.00
2018-07-12T12:19:21.561Z,480.00
2018-07-12T12:20:17.636Z,532.00
2018-07-12T12:22:10.939Z,540.00
2018-07-12T12:23:11.017Z,540.00
2018-07-12T12:25:03.042Z,544.00
2018-07-12T12:26:03.069Z,548.00
2018-07-12T12:27:57.028Z,552.00
2018-07-12T12:28:56.188Z,568.00
2018-07-12T12:30:49.384Z,576.00
2018-07-12T12:31:48.929Z,556.00
2018-07-12T12:33:41.645Z,572.00
2018-07-12T12:34:41.261Z,576.00
2018-07-12T12:36:34.234Z,564.00
2018-07-12T12:37:34.250Z,548.00
2018-07-12T12:39:26.846Z,520.00
2018-07-12T12:40:26.861Z,524.00
2018-07-12T12:42:19.605Z,524.00
2018-07-12T12:43:19.606Z,540.00
2018-07-12T12:45:12.313Z,580.00
2018-07-12T12:46:12.362Z,596.00
2018-07-12T12:48:05.108Z,604.00
2018-07-12T12:49:04.973Z,596.00
2018-07-12T12:50:57.866Z,576.00
2018-07-12T12:51:57.736Z,572.00
2018-07-12T12:53:50.707Z,596.00
2018-07-12T12:54:50.469Z,616.00
2018-07-12T12:56:43.364Z,656.00
2018-07-12T12:57:43.193Z,688.00
2018-07-12T12:59:36.087Z,696.00
2018-07-12T13:00:35.978Z,724.00
2018-07-12T13:02:28.857Z,764.00
2018-07-12T13:03:28.753Z,788.00
2018-07-12T13:05:21.633Z,824.00
2018-07-12T13:06:21.619Z,800.00
2018-07-12T13:08:14.390Z,828.00
2018-07-12T13:09:14.299Z,852.00
2018-07-12T13:11:07.131Z,864.00
2018-07-12T13:12:07.057Z,852.00
2018-07-12T13:13:59.859Z,780.00
2018-07-12T13:14:59.798Z,708.00
2018-07-12T13:16:52.684Z,560.00
2018-07-12T13:17:52.598Z,532.00
2018-07-12T13:19:45.456Z,512.00
2018-07-12T13:20:45.361Z,512.00
2018-07-12T13:22:38.431Z,484.00
2018-07-12T13:23:38.147Z,452.00
2018-07-12T13:25:31.090Z,388.00
2018-07-12T13:26:31.011Z,364.00
2018-07-12T13:28:23.774Z,324.00
2018-07-12T13:29:23.685Z,316.00
2018-07-12T13:31:16.534Z,296.00
2018-07-12T13:32:17.052Z,284.00
2018-07-12T13:34:09.361Z,276.00
2018-07-12T13:35:09.266Z,260.00
2018-07-12T13:37:02.075Z,240.00
2018-07-12T13:38:01.993Z,232.00
2018-07-12T13:39:54.821Z,228.00
2018-07-12T13:40:54.765Z,232.00
2018-07-12T13:42:47.597Z,244.00
2018-07-12T13:43:47.514Z,248.00
2018-07-12T13:45:40.487Z,256.00
2018-07-12T13:46:40.450Z,256.00
2018-07-12T13:48:33.304Z,260.00
2018-07-12T13:49:33.212Z,256.00
2018-07-12T13:51:26.518Z,260.00
2018-07-12T13:52:26.444Z,256.00
2018-07-12T13:54:19.274Z,244.00
2018-07-12T13:55:19.209Z,240.00
2018-07-12T13:57:12.015Z,252.00
2018-07-12T13:58:12.039Z,276.00
2018-07-12T14:00:04.784Z,328.00
2018-07-12T14:01:04.714Z,360.00
2018-07-12T14:02:57.548Z,416.00
2018-07-12T14:03:57.467Z,420.00
2018-07-12T14:05:50.276Z,396.00
2018-07-12T14:06:50.219Z,376.00
2018-07-12T14:08:42.999Z,368.00
2018-07-12T14:09:42.921Z,380.00
2018-07-12T14:11:35.742Z,396.00
2018-07-12T14:12:35.689Z,392.00
2018-07-12T14:14:28.551Z,368.00
2018-07-12T14:15:28.453Z,372.00
2018-07-12T14:17:21.319Z,376.00
2018-07-12T14:18:21.238Z,376.00
2018-07-12T14:20:14.141Z,344.00
2018-07-12T14:21:14.041Z,320.00
2018-07-12T14:23:06.832Z,312.00
2018-07-12T14:24:06.761Z,336.00
2018-07-12T14:25:59.615Z,384.00
2018-07-12T14:26:59.535Z,392.00
2018-07-12T14:28:52.369Z,356.00
2018-07-12T14:29:52.268Z,332.00
2018-07-12T14:31:45.094Z,356.00
2018-07-12T14:32:45.019Z,364.00
2018-07-12T14:34:37.799Z,400.00
2018-07-12T14:35:37.751Z,416.00
2018-07-12T14:37:30.582Z,460.00
2018-07-12T14:38:30.491Z,488.00
2018-07-12T14:40:23.292Z,516.00
2018-07-12T14:41:23.227Z,504.00
2018-07-12T14:43:16.033Z,468.00
2018-07-12T14:44:15.955Z,456.00
2018-07-12T14:46:08.744Z,424.00
2018-07-12T14:47:08.760Z,412.00
2018-07-12T14:49:01.478Z,408.00
2018-07-12T14:50:01.392Z,416.00
2018-07-12T14:51:54.216Z,452.00
2018-07-12T14:52:54.133Z,464.00
2018-07-12T14:54:47.031Z,432.00
2018-07-12T14:55:46.854Z,388.00
2018-07-12T14:57:39.676Z,296.00
2018-07-12T14:58:39.593Z,280.00
2018-07-12T15:00:32.389Z,272.00
2018-07-12T15:01:32.345Z,264.00
2018-07-12T15:03:25.167Z,244.00
2018-07-12T15:04:25.075Z,232.00
2018-07-12T15:06:17.882Z,228.00
2018-07-12T15:07:17.827Z,220.00
2018-07-12T15:09:10.854Z,220.00
2018-07-12T15:10:10.636Z,224.00
2018-07-12T15:12:03.459Z,244.00
2018-07-12T15:13:03.377Z,244.00
2018-07-12T15:14:56.182Z,256.00
2018-07-12T15:15:56.145Z,272.00
2018-07-12T15:17:48.952Z,284.00
2018-07-12T15:18:48.889Z,292.00
2018-07-12T15:20:41.705Z,268.00
2018-07-12T15:21:41.631Z,248.00
2018-07-12T15:23:34.429Z,204.00
2018-07-12T15:24:34.350Z,200.00
2018-07-12T15:26:27.123Z,164.00
2018-07-12T15:27:27.064Z,160.00
2018-07-12T15:29:19.960Z,164.00
2018-07-12T15:30:19.766Z,176.00
2018-07-12T15:32:12.543Z,184.00
2018-07-12T15:33:12.480Z,188.00
2018-07-12T15:35:05.294Z,180.00
2018-07-12T15:36:05.219Z,176.00
2018-07-12T15:37:58.028Z,156.00
2018-07-12T15:38:57.938Z,144.00
2018-07-12T15:40:50.790Z,132.00
2018-07-12T15:41:50.691Z,124.00
2018-07-12T15:43:43.447Z,108.00
2018-07-12T15:44:43.383Z,108.00
2018-07-12T15:46:36.198Z,96.00
2018-07-12T15:47:36.114Z,92.00
2018-07-12T15:49:28.999Z,100.00
2018-07-12T15:50:28.852Z,100.00
2018-07-12T15:52:21.646Z,92.00
2018-07-12T15:53:21.569Z,88.00
2018-07-12T15:55:14.363Z,84.00
2018-07-12T15:56:14.274Z,76.00
2018-07-12T15:58:07.056Z,76.00
2018-07-12T15:59:06.981Z,76.00
2018-07-12T16:00:59.780Z,76.00
2018-07-12T16:01:59.715Z,72.00
2018-07-12T16:03:52.503Z,68.00
2018-07-12T16:04:52.413Z,68.00
2018-07-12T16:06:45.206Z,60.00
2018-07-12T16:07:45.173Z,60.00
2018-07-12T16:09:37.924Z,56.00
2018-07-12T16:10:37.847Z,52.00
2018-07-12T16:12:30.655Z,52.00
2018-07-12T16:13:30.589Z,52.00
2018-07-12T16:15:23.359Z,56.00
2018-07-12T16:16:23.291Z,56.00
2018-07-12T16:18:16.080Z,64.00
2018-07-12T16:19:16.011Z,68.00
2018-07-12T16:21:08.840Z,72.00
2018-07-12T16:22:08.731Z,76.00
2018-07-12T16:24:01.569Z,68.00
2018-07-12T16:25:01.488Z,68.00
2018-07-12T16:26:54.287Z,64.00
2018-07-12T16:27:54.214Z,64.00
2018-07-12T16:29:47.024Z,60.00
2018-07-12T16:30:46.938Z,56.00
2018-07-12T16:32:39.720Z,56.00
2018-07-12T16:33:39.664Z,56.00
2018-07-12T16:35:32.483Z,52.00
2018-07-12T16:36:32.403Z,44.00
2018-07-12T16:38:25.203Z,40.00
2018-07-12T16:39:25.121Z,36.00
2018-07-12T16:41:17.932Z,40.00
2018-07-12T16:42:17.868Z,36.00
2018-07-12T16:44:10.711Z,40.00
2018-07-12T16:45:10.591Z,40.00
2018-07-12T16:47:03.374Z,40.00
2018-07-12T16:48:03.312Z,44.00
2018-07-12T16:49:56.150Z,44.00
2018-07-12T16:50:56.035Z,52.00
2018-07-12T16:52:48.850Z,52.00
2018-07-12T16:53:48.786Z,52.00
2018-07-12T16:55:41.585Z,56.00
2018-07-12T16:56:41.507Z,56.00
2018-07-12T16:58:34.397Z,64.00
2018-07-12T16:59:34.327Z,72.00
2018-07-12T17:01:27.153Z,76.00
2018-07-12T17:02:27.081Z,76.00
2018-07-12T17:04:19.859Z,80.00
2018-07-12T17:05:19.791Z,84.00
2018-07-12T17:07:12.632Z,84.00
2018-07-12T17:08:12.526Z,80.00
2018-07-12T17:10:05.334Z,76.00
2018-07-12T17:11:05.249Z,68.00
2018-07-12T17:12:58.023Z,64.00
2018-07-12T17:13:57.983Z,60.00
2018-07-12T17:15:50.774Z,48.00
2018-07-12T17:16:50.792Z,48.00
2018-07-12T17:18:43.531Z,40.00
2018-07-12T17:19:43.436Z,40.00
2018-07-12T17:21:36.246Z,36.00
2018-07-12T17:22:36.174Z,32.00
2018-07-12T17:24:29.014Z,32.00
2018-07-12T17:25:28.889Z,32.00
2018-07-12T17:27:21.683Z,36.00
2018-07-12T17:28:21.598Z,40.00
2018-07-12T17:30:14.750Z,44.00
2018-07-12T17:31:14.351Z,44.00
2018-07-12T17:33:07.126Z,48.00
2018-07-12T17:34:07.045Z,52.00
2018-07-12T17:35:59.857Z,60.00
2018-07-12T17:36:59.772Z,60.00
2018-07-12T17:38:52.609Z,56.00
2018-07-12T17:39:52.516Z,52.00
2018-07-12T17:41:45.363Z,44.00
2018-07-12T17:42:45.387Z,40.00
2018-07-12T17:44:38.132Z,32.00
2018-07-12T17:45:38.042Z,32.00
2018-07-12T17:47:30.880Z,28.00
2018-07-12T17:48:30.849Z,32.00
2018-07-12T17:50:23.600Z,32.00
2018-07-12T17:51:23.516Z,32.00
2018-07-12T17:53:16.393Z,36.00
2018-07-12T17:54:16.308Z,36.00
2018-07-12T17:56:09.198Z,36.00
2018-07-12T17:57:09.054Z,36.00
2018-07-12T17:59:01.909Z,40.00
2018-07-12T18:00:01.841Z,40.00
2018-07-12T18:01:54.619Z,44.00
2018-07-12T18:02:54.564Z,44.00
2018-07-12T18:04:47.383Z,44.00
2018-07-12T18:05:47.313Z,44.00
2018-07-12T18:07:40.126Z,48.00
2018-07-12T18:08:40.024Z,48.00
2018-07-12T18:10:32.854Z,48.00
2018-07-12T18:11:32.797Z,44.00
2018-07-12T18:13:25.555Z,40.00
2018-07-12T18:14:25.561Z,32.00
2018-07-12T18:16:18.337Z,32.00
2018-07-12T18:17:18.254Z,28.00
2018-07-12T18:19:11.048Z,28.00
2018-07-12T18:20:10.974Z,24.00
2018-07-12T18:22:03.851Z,28.00
2018-07-12T18:23:03.781Z,28.00
2018-07-12T18:24:56.650Z,28.00
2018-07-12T18:25:56.562Z,32.00
2018-07-12T18:27:49.334Z,32.00